createdAt,value
2018-07-05T00:01:22.105Z,19.60
2018-07-05T00:04:01.182Z,19.60
2018-07-05T00:06:40.166Z,19.60
2018-07-05T00:09:19.278Z,19.60
2018-07-05T00:11:58.425Z,19.70
2018-07-05T00:14:37.405Z,19.70
2018-07-05T00:17:16.506Z,19.70
2018-07-05T00:19:55.640Z,19.70
2018-07-05T00:22:34.844Z,19.60
2018-07-05T00:25:13.998Z,19.70
2018-07-05T00:28:07.850Z,19.60
2018-07-05T00:30:46.932Z,19.60
2018-07-05T00:33:25.927Z,19.50
2018-07-05T00:36:04.952Z,19.40
2018-07-05T00:38:43.998Z,19.40
2018-07-05T00:41:22.976Z,19.40
2018-07-05T00:44:02.063Z,19.30
2018-07-05T00:46:41.108Z,19.40
2018-07-05T00:49:20.218Z,19.30
2018-07-05T00:51:59.260Z,19.30
2018-07-05T00:54:38.155Z,19.30
2018-07-05T00:57:17.183Z,19.20
2018-07-05T00:59:56.274Z,19.20
2018-07-05T01:02:35.181Z,19.20
2018-07-05T01:05:14.366Z,19.10
2018-07-05T01:07:53.545Z,19.20
2018-07-05T01:10:32.676Z,19.20
2018-07-05T01:13:11.670Z,19.20
2018-07-05T01:15:50.572Z,19.10
2018-07-05T01:21:02.795Z,19.00
2018-07-05T01:23:41.729Z,19.00
2018-07-05T01:26:20.728Z,19.00
2018-07-05T01:28:59.705Z,18.90
2018-07-05T01:31:38.862Z,18.90
2018-07-05T01:34:18.044Z,18.90
2018-07-05T01:36:57.104Z,18.90
2018-07-05T01:39:36.036Z,18.90
2018-07-05T01:42:15.187Z,18.90
2018-07-05T01:44:54.408Z,18.90
2018-07-05T01:47:33.440Z,18.90
2018-07-05T01:50:12.398Z,18.80
2018-07-05T01:52:51.425Z,18.80
2018-07-05T01:55:30.531Z,18.70
2018-07-05T01:58:09.541Z,18.70
2018-07-05T02:00:48.662Z,18.70
2018-07-05T02:03:27.886Z,18.70
2018-07-05T02:06:07.058Z,18.70
2018-07-05T02:08:46.028Z,18.70
2018-07-05T02:11:24.970Z,18.70
2018-07-05T02:14:04.095Z,18.60
2018-07-05T02:16:43.239Z,18.60
2018-07-05T02:19:22.240Z,18.60
2018-07-05T02:22:01.397Z,18.70
2018-07-05T02:24:40.374Z,18.70
2018-07-05T02:27:19.550Z,18.60
2018-07-05T02:29:58.646Z,18.70
2018-07-05T02:32:37.872Z,18.60
2018-07-05T02:35:17.148Z,18.60
2018-07-05T02:38:02.068Z,18.60
2018-07-05T02:40:41.056Z,18.60
2018-07-05T02:43:19.977Z,18.50
2018-07-05T02:45:59.039Z,18.60
2018-07-05T02:48:38.077Z,18.60
2018-07-05T02:51:17.049Z,18.60
2018-07-05T02:53:56.138Z,18.60
2018-07-05T02:56:35.206Z,18.60
2018-07-05T02:59:14.237Z,18.60
2018-07-05T03:01:53.155Z,18.50
2018-07-05T03:04:32.341Z,18.50
2018-07-05T03:07:11.238Z,18.50
2018-07-05T03:09:50.361Z,18.50
2018-07-05T03:12:29.582Z,18.50
2018-07-05T03:15:08.648Z,18.50
2018-07-05T03:17:47.533Z,18.50
2018-07-05T03:20:26.570Z,18.50
2018-07-05T03:23:05.693Z,18.50
2018-07-05T03:25:44.801Z,18.40
2018-07-05T03:28:23.875Z,18.40
2018-07-05T03:31:02.987Z,18.40
2018-07-05T03:33:42.096Z,18.40
2018-07-05T03:36:21.662Z,18.50
2018-07-05T03:39:00.792Z,18.50
2018-07-05T03:41:39.835Z,18.50
2018-07-05T03:44:18.840Z,18.60
2018-07-05T03:46:57.905Z,18.60
2018-07-05T03:49:37.017Z,18.70
2018-07-05T03:52:16.230Z,18.70
2018-07-05T03:54:55.348Z,18.80
2018-07-05T03:57:34.482Z,18.90
2018-07-05T04:00:13.514Z,18.90
2018-07-05T04:02:52.664Z,19.00
2018-07-05T04:05:31.816Z,19.10
2018-07-05T04:08:11.152Z,19.10
2018-07-05T04:10:50.179Z,19.10
2018-07-05T04:13:29.324Z,19.20
2018-07-05T04:16:08.478Z,19.30
2018-07-05T04:18:47.397Z,19.30
2018-07-05T04:21:26.349Z,19.40
2018-07-05T04:24:05.563Z,19.50
2018-07-05T04:26:44.544Z,19.60
2018-07-05T04:29:23.560Z,19.70
2018-07-05T04:32:02.582Z,19.90
2018-07-05T04:34:41.545Z,20.00
2018-07-05T04:37:20.647Z,20.40
2018-07-05T04:39:59.711Z,21.40
2018-07-05T04:42:38.763Z,22.60
2018-07-05T04:45:17.886Z,24.00
2018-07-05T04:47:57.091Z,25.30
2018-07-05T04:50:36.206Z,26.40
2018-07-05T04:53:15.279Z,27.30
2018-07-05T04:55:54.261Z,28.20
2018-07-05T04:58:33.477Z,29.00
2018-07-05T05:01:12.649Z,29.60
2018-07-05T05:03:51.814Z,29.80
2018-07-05T05:06:30.991Z,30.00
2018-07-05T05:09:10.142Z,30.50
2018-07-05T05:11:49.290Z,30.90
2018-07-05T05:14:28.281Z,31.50
2018-07-05T05:17:07.448Z,32.00
2018-07-05T05:19:46.616Z,32.50
2018-07-05T05:22:25.665Z,32.90
2018-07-05T05:27:37.787Z,33.40
2018-07-05T05:30:16.805Z,33.20
2018-07-05T05:32:55.703Z,32.90
2018-07-05T05:35:34.722Z,32.70
2018-07-05T05:38:13.927Z,32.50
2018-07-05T05:40:52.781Z,32.20
2018-07-05T05:43:31.921Z,32.00
2018-07-05T05:46:10.905Z,31.60
2018-07-05T05:48:49.994Z,31.30
2018-07-05T05:51:29.181Z,31.20
2018-07-05T05:54:08.622Z,31.10
2018-07-05T05:56:48.059Z,31.00
2018-07-05T05:59:27.274Z,30.90
2018-07-05T06:02:06.528Z,30.80
2018-07-05T06:04:45.647Z,30.80
2018-07-05T06:07:24.766Z,30.80
2018-07-05T06:10:03.796Z,30.90
2018-07-05T06:12:42.768Z,31.00
2018-07-05T06:15:21.815Z,31.10
2018-07-05T06:18:00.779Z,31.20
2018-07-05T06:20:39.811Z,31.30
2018-07-05T06:23:18.756Z,31.40
2018-07-05T06:25:57.817Z,31.20
2018-07-05T06:28:36.905Z,31.00
2018-07-05T06:31:15.904Z,30.90
2018-07-05T06:33:54.814Z,31.00
2018-07-05T06:36:33.873Z,31.10
2018-07-05T06:39:12.986Z,31.20
2018-07-05T06:44:25.852Z,32.00
2018-07-05T06:47:04.962Z,32.30
2018-07-05T06:49:44.084Z,32.60
2018-07-05T06:52:23.136Z,33.10
2018-07-05T06:55:02.440Z,33.40
2018-07-05T06:57:41.829Z,33.90
2018-07-05T07:00:21.112Z,34.10
2018-07-05T07:03:00.159Z,34.20
2018-07-05T07:05:39.416Z,34.50
2018-07-05T07:08:18.391Z,34.90
2018-07-05T07:10:57.526Z,35.30
2018-07-05T07:13:36.665Z,35.40
2018-07-05T07:16:15.675Z,35.70
2018-07-05T07:18:55.141Z,36.00
2018-07-05T07:21:34.102Z,36.30
2018-07-05T07:24:13.332Z,36.30
2018-07-05T07:26:52.646Z,36.20
2018-07-05T07:29:31.699Z,36.00
2018-07-05T07:32:10.884Z,35.60
2018-07-05T07:34:49.977Z,35.30
2018-07-05T07:37:29.063Z,35.10
2018-07-05T07:40:08.097Z,34.80
2018-07-05T07:45:01.621Z,34.30
2018-07-05T07:47:28.192Z,33.70
2018-07-05T07:52:21.812Z,33.60
2018-07-05T07:54:48.514Z,34.10
2018-07-05T07:57:15.028Z,34.90
2018-07-05T07:59:41.530Z,35.50
2018-07-05T08:02:08.205Z,36.30
2018-07-05T08:04:34.770Z,36.90
2018-07-05T08:07:01.301Z,37.40
2018-07-05T08:09:27.869Z,37.70
2018-07-05T08:11:54.412Z,37.80
2018-07-05T08:14:20.967Z,37.60
2018-07-05T08:16:47.513Z,38.00
2018-07-05T08:19:14.106Z,38.80
2018-07-05T08:21:40.658Z,40.10
2018-07-05T08:24:07.214Z,40.60
2018-07-05T08:26:33.738Z,40.80
2018-07-05T08:29:00.263Z,41.20
2018-07-05T08:31:26.832Z,41.30
2018-07-05T08:33:53.341Z,40.90
2018-07-05T08:36:19.906Z,40.50
2018-07-05T08:38:46.458Z,40.30
2018-07-05T08:41:12.993Z,39.90
2018-07-05T08:43:39.510Z,39.10
2018-07-05T08:46:06.074Z,38.10
2018-07-05T08:48:32.645Z,37.40
2018-07-05T08:50:59.177Z,36.60
2018-07-05T08:53:25.732Z,36.10
2018-07-05T08:55:52.255Z,35.50
2018-07-05T08:58:18.793Z,34.80
2018-07-05T09:00:45.358Z,34.70
2018-07-05T09:03:11.889Z,35.20
2018-07-05T09:05:38.388Z,35.10
2018-07-05T09:08:04.960Z,35.20
2018-07-05T09:10:31.495Z,35.10
2018-07-05T09:12:58.037Z,34.80
2018-07-05T09:15:24.581Z,34.40
2018-07-05T09:17:51.288Z,33.90
2018-07-05T09:20:17.688Z,33.70
2018-07-05T09:22:44.329Z,33.50
2018-07-05T09:25:10.847Z,33.50
2018-07-05T09:27:37.421Z,33.40
2018-07-05T09:30:03.996Z,33.40
2018-07-05T09:35:03.731Z,32.90
2018-07-05T09:37:30.348Z,32.70
2018-07-05T09:39:56.813Z,32.50
2018-07-05T09:42:23.347Z,32.50
2018-07-05T09:44:49.900Z,32.70
2018-07-05T09:47:16.472Z,32.70
2018-07-05T09:49:43.210Z,32.70
2018-07-05T09:52:09.778Z,32.70
2018-07-05T09:54:36.308Z,32.80
2018-07-05T09:57:02.852Z,33.00
2018-07-05T09:59:29.378Z,33.00
2018-07-05T10:01:55.912Z,32.80
2018-07-05T10:04:22.427Z,32.80
2018-07-05T10:06:49.013Z,32.70
2018-07-05T10:09:15.551Z,32.70
2018-07-05T10:11:42.068Z,32.60
2018-07-05T10:14:08.607Z,32.50
2018-07-05T10:16:35.125Z,32.50
2018-07-05T10:19:01.675Z,32.60
2018-07-05T10:21:28.234Z,32.60
2018-07-05T10:23:54.734Z,32.50
2018-07-05T10:26:21.315Z,32.40
2018-07-05T10:29:00.507Z,32.40
2018-07-05T10:31:39.621Z,32.40
2018-07-05T10:34:06.201Z,32.40
2018-07-05T10:36:32.765Z,32.50
2018-07-05T10:41:38.968Z,32.50
2018-07-05T10:44:18.040Z,32.30
2018-07-05T10:46:57.094Z,32.20
2018-07-05T10:49:36.242Z,32.20
2018-07-05T10:52:15.423Z,32.10
2018-07-05T10:54:54.554Z,31.90
2018-07-05T10:57:33.694Z,31.90
2018-07-05T11:00:12.719Z,31.90
2018-07-05T11:02:51.860Z,32.00
2018-07-05T11:05:30.823Z,32.10
2018-07-05T11:08:09.956Z,32.20
2018-07-05T11:10:48.865Z,32.20
2018-07-05T11:13:28.006Z,32.30
2018-07-05T11:16:07.126Z,32.30
2018-07-05T11:18:46.159Z,32.30
2018-07-05T11:21:25.294Z,32.40
2018-07-05T11:24:04.744Z,32.30
2018-07-05T11:26:43.964Z,32.20
2018-07-05T11:29:23.470Z,32.20
2018-07-05T11:32:02.590Z,32.20
2018-07-05T11:34:41.786Z,32.10
2018-07-05T11:37:20.817Z,32.00
2018-07-05T11:39:59.918Z,31.90
2018-07-05T11:45:12.437Z,31.90
2018-07-05T11:47:51.481Z,32.00
2018-07-05T11:50:30.671Z,32.00
2018-07-05T11:53:09.885Z,32.10
2018-07-05T11:55:48.976Z,32.10
2018-07-05T11:58:28.096Z,32.30
2018-07-05T12:01:07.412Z,32.50
2018-07-05T12:03:46.574Z,32.50
2018-07-05T12:06:25.697Z,32.60
2018-07-05T12:09:05.943Z,32.70
2018-07-05T12:11:45.141Z,32.80
2018-07-05T12:14:24.110Z,32.80
2018-07-05T12:17:03.216Z,32.80
2018-07-05T12:19:42.350Z,32.50
2018-07-05T12:22:21.375Z,32.10
2018-07-05T12:25:00.364Z,31.90
2018-07-05T12:27:39.469Z,31.70
2018-07-05T12:30:18.473Z,31.60
2018-07-05T12:32:57.488Z,31.60
2018-07-05T12:35:36.571Z,31.60
2018-07-05T12:38:15.656Z,31.80
2018-07-05T12:40:54.629Z,31.80
2018-07-05T12:43:33.925Z,32.00
2018-07-05T12:46:13.123Z,32.00
2018-07-05T12:48:52.256Z,32.10
2018-07-05T12:51:31.426Z,32.20
2018-07-05T12:54:10.511Z,32.30
2018-07-05T12:56:49.876Z,32.30
2018-07-05T12:59:28.879Z,32.10
2018-07-05T13:02:08.254Z,32.20
2018-07-05T13:04:47.276Z,32.20
2018-07-05T13:07:26.201Z,32.10
2018-07-05T13:10:05.328Z,32.00
2018-07-05T13:12:44.452Z,32.00
2018-07-05T13:15:23.522Z,32.00
2018-07-05T13:18:02.384Z,32.00
2018-07-05T13:20:41.424Z,32.00
2018-07-05T13:23:20.602Z,31.90
2018-07-05T13:25:59.527Z,31.70
2018-07-05T13:28:38.529Z,31.50
2018-07-05T13:31:17.505Z,31.30
2018-07-05T13:33:56.500Z,31.10
2018-07-05T13:36:35.458Z,31.00
2018-07-05T13:39:14.496Z,30.80
2018-07-05T13:41:53.654Z,30.80
2018-07-05T13:44:32.625Z,30.90
2018-07-05T13:47:11.754Z,31.00
2018-07-05T13:49:50.752Z,31.20
2018-07-05T13:52:29.765Z,31.20
2018-07-05T13:55:08.736Z,31.30
2018-07-05T13:57:47.810Z,31.30
2018-07-05T14:00:26.990Z,31.20
2018-07-05T14:03:06.128Z,31.20
2018-07-05T14:05:45.132Z,31.10
2018-07-05T14:08:24.355Z,30.90
2018-07-05T14:11:03.260Z,30.70
2018-07-05T14:13:42.228Z,30.50
2018-07-05T14:16:21.389Z,30.40
2018-07-05T14:19:00.658Z,30.40
2018-07-05T14:21:39.858Z,30.30
2018-07-05T14:24:19.045Z,30.20
2018-07-05T14:26:57.963Z,30.10
2018-07-05T14:29:37.091Z,29.90
2018-07-05T14:32:16.121Z,29.90
2018-07-05T14:34:55.362Z,29.80
2018-07-05T14:37:34.460Z,29.80
2018-07-05T14:40:13.738Z,29.80
2018-07-05T14:42:52.781Z,29.80
2018-07-05T14:45:31.890Z,29.90
2018-07-05T14:48:11.033Z,29.90
2018-07-05T14:50:50.154Z,29.80
2018-07-05T14:53:29.184Z,29.70
2018-07-05T14:56:08.248Z,29.70
2018-07-05T14:58:47.308Z,29.60
2018-07-05T15:01:26.183Z,29.60
2018-07-05T15:04:05.235Z,29.50
2018-07-05T15:06:44.388Z,29.30
2018-07-05T15:09:23.624Z,29.20
2018-07-05T15:12:02.649Z,29.10
2018-07-05T15:14:41.858Z,29.10
2018-07-05T15:17:21.384Z,29.10
2018-07-05T15:20:00.356Z,29.10
2018-07-05T15:22:39.391Z,29.20
2018-07-05T15:25:18.513Z,29.20
2018-07-05T15:27:57.597Z,29.20
2018-07-05T15:30:36.607Z,29.20
2018-07-05T15:33:15.644Z,29.10
2018-07-05T15:35:54.793Z,29.10
2018-07-05T15:38:33.758Z,29.00
2018-07-05T15:41:13.036Z,28.90
2018-07-05T15:43:52.113Z,28.70
2018-07-05T15:46:31.172Z,28.60
2018-07-05T15:49:10.221Z,28.50
2018-07-05T15:51:49.342Z,28.30
2018-07-05T15:54:28.338Z,28.20
2018-07-05T15:57:07.359Z,28.00
2018-07-05T15:59:46.638Z,27.90
2018-07-05T16:02:25.535Z,27.70
2018-07-05T16:05:04.596Z,27.70
2018-07-05T16:07:43.821Z,27.70
2018-07-05T16:10:23.058Z,27.70
2018-07-05T16:13:02.172Z,27.70
2018-07-05T16:15:41.332Z,27.60
2018-07-05T16:18:20.502Z,27.50
2018-07-05T16:20:59.557Z,27.50
2018-07-05T16:23:38.729Z,27.40
2018-07-05T16:26:17.755Z,27.30
2018-07-05T16:28:56.816Z,27.30
2018-07-05T16:31:35.840Z,27.40
2018-07-05T16:34:15.044Z,27.30
2018-07-05T16:36:53.959Z,27.30
2018-07-05T16:39:33.077Z,27.20
2018-07-05T16:42:12.314Z,27.20
2018-07-05T16:44:51.389Z,27.10
2018-07-05T16:50:03.883Z,26.90
2018-07-05T16:52:42.976Z,26.80
2018-07-05T16:55:22.086Z,26.70
2018-07-05T16:58:01.118Z,26.50
2018-07-05T17:00:40.192Z,26.40
2018-07-05T17:03:19.430Z,26.30
2018-07-05T17:05:58.482Z,26.20
2018-07-05T17:08:37.607Z,26.20
2018-07-05T17:11:16.781Z,26.20
2018-07-05T17:13:55.819Z,26.20
2018-07-05T17:16:34.962Z,26.20
2018-07-05T17:19:14.013Z,26.20
2018-07-05T17:21:53.053Z,26.10
2018-07-05T17:24:32.258Z,26.10
2018-07-05T17:27:11.255Z,26.00
2018-07-05T17:29:50.764Z,25.90
2018-07-05T17:32:29.617Z,25.90
2018-07-05T17:35:08.777Z,25.90
2018-07-05T17:37:47.786Z,25.90
2018-07-05T17:40:26.644Z,25.90
2018-07-05T17:43:05.724Z,25.90
2018-07-05T17:45:44.937Z,25.80
2018-07-05T17:48:23.877Z,25.80
2018-07-05T17:51:02.945Z,25.80
2018-07-05T17:53:42.025Z,25.80
2018-07-05T17:56:21.280Z,25.70
2018-07-05T17:59:00.454Z,25.50
2018-07-05T18:01:39.601Z,25.50
2018-07-05T18:04:18.737Z,25.50
2018-07-05T18:06:57.709Z,25.40
2018-07-05T18:09:36.615Z,25.40
2018-07-05T18:12:15.728Z,25.40
2018-07-05T18:14:54.853Z,25.40
2018-07-05T18:17:33.973Z,25.40
2018-07-05T18:20:12.849Z,25.40
2018-07-05T18:22:52.065Z,25.40
2018-07-05T18:25:30.996Z,25.40
2018-07-05T18:28:10.133Z,25.40
2018-07-05T18:30:49.136Z,25.30
2018-07-05T18:33:28.366Z,25.30
2018-07-05T18:36:07.543Z,25.20
2018-07-05T18:38:46.698Z,25.20
2018-07-05T18:41:26.089Z,25.20
2018-07-05T18:46:38.505Z,25.10
2018-07-05T18:49:17.623Z,25.10
2018-07-05T18:51:56.588Z,25.10
2018-07-05T18:54:35.823Z,25.00
2018-07-05T18:57:14.971Z,25.00
2018-07-05T18:59:53.969Z,25.00
2018-07-05T19:02:33.142Z,25.00
2018-07-05T19:05:12.203Z,24.90
2018-07-05T19:07:51.258Z,24.90
2018-07-05T19:10:30.458Z,24.80
2018-07-05T19:13:09.539Z,24.80
2018-07-05T19:15:48.622Z,24.70
2018-07-05T19:18:27.561Z,24.70
2018-07-05T19:21:06.667Z,24.60
2018-07-05T19:23:45.850Z,24.50
2018-07-05T19:26:24.962Z,24.50
2018-07-05T19:29:04.036Z,24.50
2018-07-05T19:31:43.018Z,24.40
2018-07-05T19:34:22.186Z,24.30
2018-07-05T19:37:01.134Z,24.30
2018-07-05T19:39:40.292Z,24.20
2018-07-05T19:42:19.497Z,24.20
2018-07-05T19:44:58.530Z,24.20
2018-07-05T19:47:37.623Z,24.00
2018-07-05T19:50:16.526Z,24.00
2018-07-05T19:52:55.652Z,23.90
2018-07-05T19:55:34.460Z,23.80
2018-07-05T19:58:13.613Z,23.80
2018-07-05T20:00:52.597Z,23.70
2018-07-05T20:03:31.842Z,23.60
2018-07-05T20:06:10.910Z,23.60
2018-07-05T20:08:50.164Z,23.50
2018-07-05T20:11:29.304Z,23.40
2018-07-05T20:14:08.433Z,23.40
2018-07-05T20:16:47.503Z,23.30
2018-07-05T20:19:26.709Z,23.30
2018-07-05T20:22:10.271Z,23.30
2018-07-05T20:24:49.383Z,23.30
2018-07-05T20:27:28.243Z,23.30
2018-07-05T20:30:07.488Z,23.30
2018-07-05T20:32:46.550Z,23.30
2018-07-05T20:35:25.715Z,23.20
2018-07-05T20:38:04.883Z,23.20
2018-07-05T20:40:44.118Z,23.20
2018-07-05T20:43:23.221Z,23.10
2018-07-05T20:46:02.363Z,23.10
2018-07-05T20:48:41.455Z,23.00
2018-07-05T20:51:20.635Z,23.00
2018-07-05T20:53:59.895Z,23.00
2018-07-05T20:56:38.975Z,22.90
2018-07-05T20:59:18.757Z,22.90
2018-07-05T21:01:57.761Z,22.90
2018-07-05T21:04:36.835Z,22.80
2018-07-05T21:07:16.034Z,22.90
2018-07-05T21:09:55.190Z,22.90
2018-07-05T21:12:34.353Z,22.90
2018-07-05T21:15:13.253Z,22.80
2018-07-05T21:17:52.393Z,22.80
2018-07-05T21:20:31.618Z,22.80
2018-07-05T21:25:43.957Z,22.70
2018-07-05T21:28:23.172Z,22.70
2018-07-05T21:31:02.326Z,22.70
2018-07-05T21:33:41.464Z,22.70
2018-07-05T21:36:20.394Z,22.60
2018-07-05T21:38:59.388Z,22.60
2018-07-05T21:41:38.386Z,22.60
2018-07-05T21:46:50.720Z,22.60
2018-07-05T21:49:29.622Z,22.50
2018-07-05T21:52:08.817Z,22.60
2018-07-05T21:54:47.937Z,22.60
2018-07-05T21:57:27.093Z,22.60
2018-07-05T22:00:06.230Z,22.50
2018-07-05T22:02:45.423Z,22.60
2018-07-05T22:05:24.474Z,22.60
2018-07-05T22:08:03.406Z,22.60
2018-07-05T22:10:42.550Z,22.60
2018-07-05T22:13:21.755Z,22.60
2018-07-05T22:16:01.113Z,22.70
2018-07-05T22:18:46.150Z,22.60
2018-07-05T22:21:25.633Z,22.60
2018-07-05T22:24:10.718Z,22.60
2018-07-05T22:26:49.717Z,22.70
2018-07-05T22:29:34.538Z,22.60
2018-07-05T22:32:13.726Z,22.60
2018-07-05T22:34:52.897Z,22.60
2018-07-05T22:37:32.041Z,22.50
2018-07-05T22:40:11.153Z,22.50
2018-07-05T22:42:50.257Z,22.50
2018-07-05T22:45:29.110Z,22.50
2018-07-05T22:48:08.168Z,22.50
2018-07-05T22:50:47.238Z,22.50
2018-07-05T22:53:26.458Z,22.40
2018-07-05T22:56:05.529Z,22.40
2018-07-05T22:58:44.604Z,22.40
2018-07-05T23:01:23.719Z,22.40
2018-07-05T23:04:02.821Z,22.40
2018-07-05T23:06:41.863Z,22.40
2018-07-05T23:09:20.887Z,22.40
2018-07-05T23:12:00.140Z,22.30
2018-07-05T23:14:39.276Z,22.30
2018-07-05T23:17:18.530Z,22.20
2018-07-05T23:19:57.574Z,22.20
2018-07-05T23:22:36.714Z,22.10
2018-07-05T23:25:15.797Z,22.10
2018-07-05T23:27:54.667Z,22.10
2018-07-05T23:30:33.635Z,22.00
2018-07-05T23:33:12.846Z,22.10
2018-07-05T23:35:51.888Z,22.10
2018-07-05T23:38:30.858Z,22.10
2018-07-05T23:41:09.970Z,22.10
2018-07-05T23:43:48.869Z,22.20
2018-07-05T23:46:27.833Z,22.10
2018-07-05T23:49:06.901Z,22.10
2018-07-05T23:51:45.868Z,22.10
2018-07-05T23:54:24.824Z,22.10
2018-07-05T23:57:03.910Z,22.10
2018-07-05T23:59:42.921Z,22.10
